Check out our new PWSWeather beta!
PWSweather.com
Personal Weather Stations
Station Observations
SEANO
CarmignanoIT

CarmignanoIT

Lat: 43.829667, Lon: 11.02622

Elevation: 142

Station Type: Davis Vantage Pro2

http://www.meteoseano.it

High Low Average
Temperature 70.7°F21.5°C 49.9°F9.9°C 60.1°F15.6°C
Dew Point 55.6°F13.1°C 42.2°F5.7°C 48.7°F9.3°C
Winds 15.0 mph 24.1 kmh Calm Calm 3.0 mph S4.8 kmh S
Wind Gusts 21.9 mph35.2 kmh -- 4.0 mph6.4 kmh
Humidity 92% 39% 68%
Pressure 29.99 in1015.6 mb 29.92 in1013.2 mb -
Precipitation 0.02 in0.5 mm - -
Hour Temp Dew Point Humidity Winds Wind Gusts Pressure Precip Precip Rate Daily Precip Total
12:00 AM 54.9°F12.7°C 49.5°F9.7°C 82% Calm Calm -- 29.97 in1014.9 mb - 0.00 in0.0 mm 0.00 in0.0 mm
12:10 AM 54.8°F12.7°C 49.4°F9.7°C 82% Calm Calm -- 29.97 in1014.9 mb - 0.00 in0.0 mm 0.00 in0.0 mm
12:15 AM 54.7°F12.6°C 49.3°F9.6°C 82% Calm Calm 2.3 mph3.7 kmh 29.97 in1014.9 mb - 0.00 in0.0 mm 0.00 in0.0 mm
12:20 AM 54.6°F12.6°C 49.5°F9.7°C 83% 1.2 mph ESE1.9 kmh ESE 2.3 mph3.7 kmh 29.97 in1014.9 mb - 0.00 in0.0 mm 0.00 in0.0 mm
12:25 AM 54.5°F12.5°C 49.4°F9.7°C 83% Calm Calm 1.2 mph1.9 kmh 29.97 in1014.9 mb - 0.00 in0.0 mm 0.00 in0.0 mm
12:30 AM 54.4°F12.4°C 49.4°F9.7°C 83% 2.3 mph ESE3.7 kmh ESE 2.3 mph3.7 kmh 29.97 in1014.9 mb - 0.00 in0.0 mm 0.00 in0.0 mm
12:35 AM 54.4°F12.4°C 49.7°F9.8°C 84% 1.2 mph ESE1.9 kmh ESE 2.3 mph3.7 kmh 29.97 in1014.9 mb - 0.00 in0.0 mm 0.00 in0.0 mm
12:40 AM 54.3°F12.4°C 49.6°F9.8°C 84% 1.2 mph ESE1.9 kmh ESE 2.3 mph3.7 kmh 29.97 in1014.9 mb - 0.00 in0.0 mm 0.00 in0.0 mm
12:45 AM 54.2°F12.3°C 49.5°F9.7°C 84% Calm Calm 1.2 mph1.9 kmh 29.97 in1014.9 mb - 0.00 in0.0 mm 0.00 in0.0 mm
12:50 AM 54.2°F12.3°C 49.5°F9.7°C 84% Calm Calm 1.2 mph1.9 kmh 29.97 in1014.9 mb - 0.00 in0.0 mm 0.00 in0.0 mm
12:55 AM 54.2°F12.3°C 49.5°F9.7°C 84% Calm Calm -- 29.96 in1014.6 mb - 0.00 in0.0 mm 0.00 in0.0 mm
01:00 AM 54.1°F12.3°C 49.4°F9.7°C 84% Calm Calm -- 29.97 in1014.9 mb - 0.00 in0.0 mm 0.00 in0.0 mm
01:10 AM 54.1°F12.3°C 49.7°F9.8°C 85% Calm Calm -- 29.96 in1014.6 mb - 0.00 in0.0 mm 0.00 in0.0 mm
01:15 AM 54.1°F12.3°C 49.7°F9.8°C 85% Calm Calm -- 29.96 in1014.6 mb - 0.00 in0.0 mm 0.00 in0.0 mm
01:20 AM 54.0°F12.2°C 49.6°F9.8°C 85% Calm Calm -- 29.96 in1014.6 mb - 0.00 in0.0 mm 0.00 in0.0 mm
01:25 AM 53.9°F12.2°C 49.5°F9.7°C 85% Calm Calm -- 29.97 in1014.9 mb - 0.00 in0.0 mm 0.00 in0.0 mm
01:30 AM 53.9°F12.2°C 49.8°F9.9°C 86% Calm Calm -- 29.97 in1014.9 mb - 0.00 in0.0 mm 0.00 in0.0 mm
01:35 AM 53.8°F12.1°C 49.7°F9.8°C 86% Calm Calm -- 29.96 in1014.6 mb - 0.00 in0.0 mm 0.00 in0.0 mm
01:40 AM 53.8°F12.1°C 49.7°F9.8°C 86% Calm Calm -- 29.96 in1014.6 mb - 0.00 in0.0 mm 0.00 in0.0 mm
01:45 AM 53.8°F12.1°C 49.7°F9.8°C 86% Calm Calm -- 29.96 in1014.6 mb - 0.00 in0.0 mm 0.00 in0.0 mm
01:50 AM 53.7°F12.1°C 49.6°F9.8°C 86% Calm Calm -- 29.96 in1014.6 mb - 0.00 in0.0 mm 0.00 in0.0 mm
01:55 AM 53.7°F12.1°C 49.6°F9.8°C 86% Calm Calm -- 29.96 in1014.6 mb - 0.00 in0.0 mm 0.00 in0.0 mm
02:00 AM 53.6°F12.0°C 49.5°F9.7°C 86% Calm Calm -- 29.96 in1014.6 mb - 0.00 in0.0 mm 0.00 in0.0 mm
02:10 AM 53.6°F12.0°C 49.8°F9.9°C 87% 2.3 mph ESE3.7 kmh ESE 3.5 mph5.6 kmh 29.96 in1014.6 mb - 0.00 in0.0 mm 0.00 in0.0 mm
02:15 AM 53.5°F11.9°C 49.7°F9.8°C 87% 1.2 mph ESE1.9 kmh ESE 3.5 mph5.6 kmh 29.96 in1014.6 mb - 0.00 in0.0 mm 0.00 in0.0 mm
02:20 AM 53.5°F11.9°C 49.7°F9.8°C 87% 1.2 mph ESE1.9 kmh ESE 2.3 mph3.7 kmh 29.96 in1014.6 mb - 0.00 in0.0 mm 0.00 in0.0 mm
02:25 AM 53.4°F11.9°C 49.6°F9.8°C 87% Calm Calm 2.3 mph3.7 kmh 29.96 in1014.6 mb - 0.00 in0.0 mm 0.00 in0.0 mm
02:30 AM 53.3°F11.8°C 49.5°F9.7°C 87% 1.2 mph ESE1.9 kmh ESE 2.3 mph3.7 kmh 29.96 in1014.6 mb - 0.00 in0.0 mm 0.00 in0.0 mm
02:35 AM 53.2°F11.8°C 49.4°F9.7°C 87% 1.2 mph ESE1.9 kmh ESE 1.2 mph1.9 kmh 29.96 in1014.6 mb - 0.00 in0.0 mm 0.00 in0.0 mm
02:40 AM 53.2°F11.8°C 49.4°F9.7°C 87% Calm Calm -- 29.96 in1014.6 mb - 0.00 in0.0 mm 0.00 in0.0 mm
02:45 AM 53.1°F11.7°C 49.3°F9.6°C 87% Calm Calm 1.2 mph1.9 kmh 29.95 in1014.2 mb - 0.00 in0.0 mm 0.00 in0.0 mm
02:50 AM 53.1°F11.7°C 49.3°F9.6°C 87% Calm Calm 1.2 mph1.9 kmh 29.95 in1014.2 mb - 0.00 in0.0 mm 0.00 in0.0 mm
02:55 AM 53.1°F11.7°C 49.6°F9.8°C 88% 1.2 mph ESE1.9 kmh ESE 2.3 mph3.7 kmh 29.95 in1014.2 mb - 0.00 in0.0 mm 0.00 in0.0 mm
03:00 AM 53.0°F11.7°C 49.5°F9.7°C 88% Calm Calm -- 29.95 in1014.2 mb - 0.00 in0.0 mm 0.00 in0.0 mm
03:10 AM 52.9°F11.6°C 49.4°F9.7°C 88% 1.2 mph ESE1.9 kmh ESE 2.3 mph3.7 kmh 29.95 in1014.2 mb - 0.00 in0.0 mm 0.00 in0.0 mm
03:15 AM 52.9°F11.6°C 49.4°F9.7°C 88% 1.2 mph ESE1.9 kmh ESE 2.3 mph3.7 kmh 29.95 in1014.2 mb - 0.00 in0.0 mm 0.00 in0.0 mm
03:20 AM 52.9°F11.6°C 49.4°F9.7°C 88% Calm Calm -- 29.95 in1014.2 mb - 0.00 in0.0 mm 0.00 in0.0 mm
03:25 AM 52.9°F11.6°C 49.4°F9.7°C 88% Calm Calm -- 29.95 in1014.2 mb - 0.00 in0.0 mm 0.00 in0.0 mm
03:30 AM 52.9°F11.6°C 49.4°F9.7°C 88% Calm Calm -- 29.95 in1014.2 mb - 0.00 in0.0 mm 0.00 in0.0 mm
03:35 AM 52.8°F11.6°C 49.3°F9.6°C 88% Calm Calm 1.2 mph1.9 kmh 29.95 in1014.2 mb - 0.00 in0.0 mm 0.00 in0.0 mm
03:40 AM 52.8°F11.6°C 49.3°F9.6°C 88% Calm Calm -- 29.95 in1014.2 mb - 0.00 in0.0 mm 0.00 in0.0 mm
03:45 AM 52.8°F11.6°C 49.3°F9.6°C 88% Calm Calm -- 29.96 in1014.6 mb - 0.00 in0.0 mm 0.00 in0.0 mm
03:50 AM 52.7°F11.5°C 49.3°F9.6°C 88% Calm Calm -- 29.95 in1014.2 mb - 0.00 in0.0 mm 0.00 in0.0 mm
03:55 AM 52.7°F11.5°C 49.5°F9.7°C 89% Calm Calm -- 29.95 in1014.2 mb - 0.00 in0.0 mm 0.00 in0.0 mm
04:00 AM 52.7°F11.5°C 49.5°F9.7°C 89% Calm Calm -- 29.95 in1014.2 mb - 0.00 in0.0 mm 0.00 in0.0 mm
04:10 AM 52.6°F11.4°C 49.4°F9.7°C 89% Calm Calm -- 29.95 in1014.2 mb - 0.00 in0.0 mm 0.00 in0.0 mm
04:15 AM 52.6°F11.4°C 49.4°F9.7°C 89% Calm Calm -- 29.95 in1014.2 mb - 0.00 in0.0 mm 0.00 in0.0 mm
04:20 AM 52.6°F11.4°C 49.4°F9.7°C 89% Calm Calm -- 29.95 in1014.2 mb - 0.00 in0.0 mm 0.00 in0.0 mm
04:25 AM 52.5°F11.4°C 49.4°F9.7°C 89% Calm Calm -- 29.95 in1014.2 mb - 0.00 in0.0 mm 0.00 in0.0 mm
04:30 AM 52.5°F11.4°C 49.4°F9.7°C 89% Calm Calm -- 29.95 in1014.2 mb - 0.00 in0.0 mm 0.00 in0.0 mm
04:35 AM 52.5°F11.4°C 49.4°F9.7°C 89% Calm Calm -- 29.96 in1014.6 mb - 0.00 in0.0 mm 0.00 in0.0 mm
04:40 AM 52.4°F11.3°C 49.3°F9.6°C 89% Calm Calm -- 29.96 in1014.6 mb - 0.00 in0.0 mm 0.00 in0.0 mm
04:45 AM 52.4°F11.3°C 49.3°F9.6°C 89% Calm Calm -- 29.96 in1014.6 mb - 0.00 in0.0 mm 0.00 in0.0 mm
04:50 AM 52.4°F11.3°C 49.3°F9.6°C 89% Calm Calm -- 29.96 in1014.6 mb - 0.00 in0.0 mm 0.00 in0.0 mm
04:55 AM 52.4°F11.3°C 49.3°F9.6°C 89% Calm Calm -- 29.96 in1014.6 mb - 0.00 in0.0 mm 0.00 in0.0 mm
05:00 AM 52.4°F11.3°C 49.3°F9.6°C 89% Calm Calm 1.2 mph1.9 kmh 29.96 in1014.6 mb - 0.00 in0.0 mm 0.00 in0.0 mm
05:10 AM 52.4°F11.3°C 49.6°F9.8°C 90% Calm Calm -- 29.96 in1014.6 mb - 0.01 in0.3 mm 0.01 in0.3 mm
05:15 AM 52.5°F11.4°C 49.7°F9.8°C 90% 2.3 mph ESE3.7 kmh ESE 3.5 mph5.6 kmh 29.96 in1014.6 mb - 0.01 in0.3 mm 0.01 in0.3 mm
05:20 AM 52.5°F11.4°C 49.7°F9.8°C 90% 1.2 mph ESE1.9 kmh ESE 1.2 mph1.9 kmh 29.96 in1014.6 mb - 0.02 in0.5 mm 0.02 in0.5 mm
05:25 AM 52.5°F11.4°C 49.7°F9.8°C 90% Calm Calm -- 29.96 in1014.6 mb - 0.02 in0.5 mm 0.02 in0.5 mm
05:30 AM 52.5°F11.4°C 49.7°F9.8°C 90% Calm Calm -- 29.96 in1014.6 mb - 0.02 in0.5 mm 0.02 in0.5 mm
05:35 AM 52.5°F11.4°C 49.7°F9.8°C 90% Calm Calm 1.2 mph1.9 kmh 29.97 in1014.9 mb - 0.02 in0.5 mm 0.02 in0.5 mm
05:40 AM 52.4°F11.3°C 49.6°F9.8°C 90% Calm Calm -- 29.97 in1014.9 mb - 0.02 in0.5 mm 0.02 in0.5 mm
05:45 AM 52.4°F11.3°C 49.9°F9.9°C 91% Calm Calm -- 29.97 in1014.9 mb - 0.02 in0.5 mm 0.02 in0.5 mm
05:50 AM 52.4°F11.3°C 49.8°F9.9°C 91% Calm Calm 1.2 mph1.9 kmh 29.97 in1014.9 mb - 0.02 in0.5 mm 0.02 in0.5 mm
05:55 AM 52.4°F11.3°C 49.8°F9.9°C 91% 1.2 mph ESE1.9 kmh ESE 1.2 mph1.9 kmh 29.97 in1014.9 mb - 0.02 in0.5 mm 0.02 in0.5 mm
06:00 AM 52.3°F11.3°C 49.8°F9.9°C 91% Calm Calm -- 29.97 in1014.9 mb - 0.02 in0.5 mm 0.02 in0.5 mm
06:10 AM 52.3°F11.3°C 49.8°F9.9°C 91% Calm Calm 1.2 mph1.9 kmh 29.97 in1014.9 mb - 0.01 in0.3 mm 0.02 in0.5 mm
06:15 AM 52.4°F11.3°C 49.8°F9.9°C 91% 1.2 mph ESE1.9 kmh ESE 2.3 mph3.7 kmh 29.98 in1015.2 mb - 0.01 in0.3 mm 0.02 in0.5 mm
06:20 AM 52.5°F11.4°C 49.9°F9.9°C 91% Calm Calm 1.2 mph1.9 kmh 29.98 in1015.2 mb - 0.00 in0.0 mm 0.02 in0.5 mm
06:25 AM 52.5°F11.4°C 50.0°F10.0°C 91% Calm Calm -- 29.98 in1015.2 mb - 0.00 in0.0 mm 0.02 in0.5 mm
06:30 AM 52.6°F11.4°C 50.3°F10.2°C 92% Calm Calm 1.2 mph1.9 kmh 29.98 in1015.2 mb - 0.00 in0.0 mm 0.02 in0.5 mm
06:35 AM 52.6°F11.4°C 50.3°F10.2°C 92% Calm Calm 1.2 mph1.9 kmh 29.98 in1015.2 mb - 0.00 in0.0 mm 0.02 in0.5 mm
06:40 AM 52.7°F11.5°C 50.4°F10.2°C 92% Calm Calm -- 29.98 in1015.2 mb - 0.00 in0.0 mm 0.02 in0.5 mm
06:45 AM 52.7°F11.5°C 50.4°F10.2°C 92% Calm Calm -- 29.98 in1015.2 mb - 0.00 in0.0 mm 0.02 in0.5 mm
06:50 AM 52.7°F11.5°C 50.4°F10.2°C 92% Calm Calm -- 29.98 in1015.2 mb - 0.00 in0.0 mm 0.02 in0.5 mm
06:55 AM 52.8°F11.6°C 50.5°F10.3°C 92% Calm Calm 1.2 mph1.9 kmh 29.98 in1015.2 mb - 0.00 in0.0 mm 0.02 in0.5 mm
07:00 AM 52.9°F11.6°C 50.6°F10.3°C 92% Calm Calm 1.2 mph1.9 kmh 29.98 in1015.2 mb - 0.00 in0.0 mm 0.02 in0.5 mm
07:10 AM 53.1°F11.7°C 50.8°F10.4°C 92% Calm Calm -- 29.98 in1015.2 mb - 0.00 in0.0 mm 0.02 in0.5 mm
07:15 AM 53.4°F11.9°C 51.1°F10.6°C 92% Calm Calm 1.2 mph1.9 kmh 29.98 in1015.2 mb - 0.00 in0.0 mm 0.02 in0.5 mm
07:20 AM 53.6°F12.0°C 51.3°F10.7°C 92% Calm Calm 1.2 mph1.9 kmh 29.99 in1015.6 mb - 0.00 in0.0 mm 0.02 in0.5 mm
07:25 AM 53.8°F12.1°C 51.5°F10.8°C 92% Calm Calm -- 29.98 in1015.2 mb - 0.00 in0.0 mm 0.02 in0.5 mm
07:30 AM 53.9°F12.2°C 51.6°F10.9°C 92% Calm Calm -- 29.99 in1015.6 mb - 0.00 in0.0 mm 0.02 in0.5 mm
07:35 AM 54.0°F12.2°C 51.7°F10.9°C 92% Calm Calm -- 29.99 in1015.6 mb - 0.00 in0.0 mm 0.02 in0.5 mm
07:40 AM 54.0°F12.2°C 51.8°F11.0°C 92% Calm Calm -- 29.99 in1015.6 mb - 0.00 in0.0 mm 0.02 in0.5 mm
07:45 AM 54.4°F12.4°C 52.1°F11.2°C 92% Calm Calm -- 29.99 in1015.6 mb - 0.00 in0.0 mm 0.02 in0.5 mm
07:50 AM 54.5°F12.5°C 52.2°F11.2°C 92% Calm Calm -- 29.99 in1015.6 mb - 0.00 in0.0 mm 0.02 in0.5 mm
07:55 AM 54.7°F12.6°C 52.4°F11.3°C 92% 1.2 mph ESE1.9 kmh ESE 3.5 mph5.6 kmh 29.99 in1015.6 mb - 0.00 in0.0 mm 0.02 in0.5 mm
08:00 AM 54.8°F12.7°C 52.5°F11.4°C 92% 1.2 mph ESE1.9 kmh ESE 3.5 mph5.6 kmh 29.99 in1015.6 mb - 0.00 in0.0 mm 0.02 in0.5 mm
08:10 AM 55.2°F12.9°C 52.6°F11.4°C 91% 1.2 mph E1.9 kmh E 3.5 mph5.6 kmh 29.98 in1015.2 mb - 0.00 in0.0 mm 0.02 in0.5 mm
08:15 AM 55.4°F13.0°C 52.8°F11.6°C 91% 1.2 mph E1.9 kmh E 4.6 mph7.4 kmh 29.99 in1015.6 mb - 0.00 in0.0 mm 0.02 in0.5 mm
08:20 AM 55.6°F13.1°C 52.7°F11.5°C 90% Calm Calm 2.3 mph3.7 kmh 29.99 in1015.6 mb - 0.00 in0.0 mm 0.02 in0.5 mm
08:25 AM 55.8°F13.2°C 52.6°F11.4°C 89% 1.2 mph ENE1.9 kmh ENE 3.5 mph5.6 kmh 29.99 in1015.6 mb - 0.00 in0.0 mm 0.02 in0.5 mm
08:30 AM 56.5°F13.6°C 53.6°F12.0°C 90% 1.2 mph ENE1.9 kmh ENE 1.2 mph1.9 kmh 29.99 in1015.6 mb - 0.00 in0.0 mm 0.02 in0.5 mm
08:35 AM 57.2°F14.0°C 54.0°F12.2°C 89% 1.2 mph ENE1.9 kmh ENE 2.3 mph3.7 kmh 29.98 in1015.2 mb - 0.00 in0.0 mm 0.02 in0.5 mm
08:40 AM 57.6°F14.2°C 53.5°F11.9°C 86% 1.2 mph ENE1.9 kmh ENE 1.2 mph1.9 kmh 29.98 in1015.2 mb - 0.00 in0.0 mm 0.02 in0.5 mm
08:45 AM 58.5°F14.7°C 54.0°F12.2°C 85% 1.2 mph ENE1.9 kmh ENE 2.3 mph3.7 kmh 29.98 in1015.2 mb - 0.00 in0.0 mm 0.02 in0.5 mm
08:50 AM 59.0°F15.0°C 53.2°F11.8°C 81% 1.2 mph ENE1.9 kmh ENE 3.5 mph5.6 kmh 29.98 in1015.2 mb - 0.00 in0.0 mm 0.02 in0.5 mm
08:55 AM 59.6°F15.3°C 53.5°F11.9°C 80% Calm Calm -- 29.98 in1015.2 mb - 0.00 in0.0 mm 0.02 in0.5 mm
09:00 AM 60.3°F15.7°C 53.8°F12.1°C 79% 1.2 mph ENE1.9 kmh ENE 3.5 mph5.6 kmh 29.98 in1015.2 mb - 0.00 in0.0 mm 0.02 in0.5 mm
09:10 AM 60.5°F15.8°C 53.3°F11.8°C 77% 1.2 mph ENE1.9 kmh ENE 1.2 mph1.9 kmh 29.98 in1015.2 mb - 0.00 in0.0 mm 0.02 in0.5 mm
09:15 AM 60.9°F16.1°C 54.0°F12.2°C 78% 1.2 mph ENE1.9 kmh ENE 3.5 mph5.6 kmh 29.98 in1015.2 mb - 0.00 in0.0 mm 0.02 in0.5 mm
09:20 AM 60.9°F16.1°C 53.3°F11.8°C 76% Calm Calm 1.2 mph1.9 kmh 29.98 in1015.2 mb - 0.00 in0.0 mm 0.02 in0.5 mm
09:25 AM 61.2°F16.2°C 53.5°F11.9°C 76% Calm Calm 1.2 mph1.9 kmh 29.98 in1015.2 mb - 0.00 in0.0 mm 0.02 in0.5 mm
09:30 AM 61.5°F16.4°C 53.9°F12.2°C 76% 1.2 mph ENE1.9 kmh ENE 2.3 mph3.7 kmh 29.98 in1015.2 mb - 0.00 in0.0 mm 0.02 in0.5 mm
09:35 AM 61.9°F16.6°C 54.2°F12.3°C 76% 1.2 mph ENE1.9 kmh ENE 3.5 mph5.6 kmh 29.99 in1015.6 mb - 0.00 in0.0 mm 0.02 in0.5 mm
09:40 AM 62.6°F17.0°C 53.8°F12.1°C 73% 3.5 mph ENE5.6 kmh ENE 4.6 mph7.4 kmh 29.99 in1015.6 mb - 0.00 in0.0 mm 0.02 in0.5 mm
09:45 AM 62.6°F17.0°C 51.9°F11.1°C 68% 3.5 mph ENE5.6 kmh ENE 3.5 mph5.6 kmh 29.99 in1015.6 mb - 0.00 in0.0 mm 0.02 in0.5 mm
09:50 AM 62.8°F17.1°C 52.9°F11.6°C 70% 2.3 mph NE3.7 kmh NE 3.5 mph5.6 kmh 29.98 in1015.2 mb - 0.00 in0.0 mm 0.02 in0.5 mm
09:55 AM 63.1°F17.3°C 53.2°F11.8°C 70% 3.5 mph NE5.6 kmh NE 4.6 mph7.4 kmh 29.99 in1015.6 mb - 0.00 in0.0 mm 0.02 in0.5 mm
10:00 AM 63.4°F17.4°C 53.0°F11.7°C 69% 3.5 mph NNW5.6 kmh NNW 3.5 mph5.6 kmh 29.98 in1015.2 mb - 0.00 in0.0 mm 0.02 in0.5 mm
10:10 AM 63.6°F17.6°C 53.2°F11.8°C 69% 1.2 mph NW1.9 kmh NW 3.5 mph5.6 kmh 29.98 in1015.2 mb - 0.00 in0.0 mm 0.02 in0.5 mm
10:15 AM 64.0°F17.8°C 53.2°F11.8°C 68% 2.3 mph NW3.7 kmh NW 3.5 mph5.6 kmh 29.98 in1015.2 mb - 0.00 in0.0 mm 0.02 in0.5 mm
10:20 AM 64.3°F17.9°C 53.5°F11.9°C 68% 3.5 mph NNW5.6 kmh NNW 3.5 mph5.6 kmh 29.98 in1015.2 mb - 0.00 in0.0 mm 0.02 in0.5 mm
10:25 AM 64.9°F18.3°C 54.5°F12.5°C 69% 1.2 mph NW1.9 kmh NW 5.8 mph9.3 kmh 29.98 in1015.2 mb - 0.00 in0.0 mm 0.02 in0.5 mm
10:30 AM 65.0°F18.3°C 53.8°F12.1°C 67% 1.2 mph WNW1.9 kmh WNW 3.5 mph5.6 kmh 29.98 in1015.2 mb - 0.00 in0.0 mm 0.02 in0.5 mm
10:35 AM 65.1°F18.4°C 53.9°F12.2°C 67% Calm Calm 1.2 mph1.9 kmh 29.98 in1015.2 mb - 0.00 in0.0 mm 0.02 in0.5 mm
10:40 AM 65.3°F18.5°C 54.1°F12.3°C 67% 2.3 mph N3.7 kmh N 4.6 mph7.4 kmh 29.98 in1015.2 mb - 0.00 in0.0 mm 0.02 in0.5 mm
10:45 AM 65.8°F18.8°C 54.9°F12.7°C 68% 1.2 mph WNW1.9 kmh WNW 5.8 mph9.3 kmh 29.98 in1015.2 mb - 0.00 in0.0 mm 0.02 in0.5 mm
10:50 AM 66.2°F19.0°C 54.5°F12.5°C 66% 1.2 mph SW1.9 kmh SW 3.5 mph5.6 kmh 29.98 in1015.2 mb - 0.00 in0.0 mm 0.02 in0.5 mm
10:55 AM 66.5°F19.2°C 54.8°F12.7°C 66% 1.2 mph S1.9 kmh S 1.2 mph1.9 kmh 29.98 in1015.2 mb - 0.00 in0.0 mm 0.02 in0.5 mm
11:00 AM 66.5°F19.2°C 54.4°F12.4°C 65% 2.3 mph NW3.7 kmh NW 3.5 mph5.6 kmh 29.98 in1015.2 mb - 0.00 in0.0 mm 0.02 in0.5 mm
11:10 AM 66.9°F19.4°C 54.7°F12.6°C 65% 1.2 mph WNW1.9 kmh WNW 2.3 mph3.7 kmh 29.97 in1014.9 mb - 0.00 in0.0 mm 0.02 in0.5 mm
11:15 AM 67.8°F19.9°C 55.6°F13.1°C 65% Calm Calm 1.2 mph1.9 kmh 29.97 in1014.9 mb - 0.00 in0.0 mm 0.02 in0.5 mm
11:20 AM 68.4°F20.2°C 55.3°F12.9°C 63% 1.2 mph W1.9 kmh W 5.8 mph9.3 kmh 29.97 in1014.9 mb - 0.00 in0.0 mm 0.02 in0.5 mm
11:25 AM 68.1°F20.1°C 54.6°F12.6°C 62% 2.3 mph W3.7 kmh W 5.8 mph9.3 kmh 29.97 in1014.9 mb - 0.00 in0.0 mm 0.02 in0.5 mm
11:30 AM 68.0°F20.0°C 54.9°F12.7°C 63% 3.5 mph NW5.6 kmh NW 5.8 mph9.3 kmh 29.97 in1014.9 mb - 0.00 in0.0 mm 0.02 in0.5 mm
11:35 AM 68.0°F20.0°C 54.5°F12.5°C 62% 3.5 mph NW5.6 kmh NW 4.6 mph7.4 kmh 29.97 in1014.9 mb - 0.00 in0.0 mm 0.02 in0.5 mm
11:40 AM 67.8°F19.9°C 54.3°F12.4°C 62% 2.3 mph NW3.7 kmh NW 3.5 mph5.6 kmh 29.97 in1014.9 mb - 0.00 in0.0 mm 0.02 in0.5 mm
11:45 AM 67.9°F19.9°C 54.4°F12.4°C 62% 1.2 mph NW1.9 kmh NW 3.5 mph5.6 kmh 29.97 in1014.9 mb - 0.00 in0.0 mm 0.02 in0.5 mm
11:50 AM 67.5°F19.7°C 54.0°F12.2°C 62% 3.5 mph WNW5.6 kmh WNW 4.6 mph7.4 kmh 29.97 in1014.9 mb - 0.00 in0.0 mm 0.02 in0.5 mm
11:55 AM 67.1°F19.5°C 54.1°F12.3°C 63% 2.3 mph W3.7 kmh W 5.8 mph9.3 kmh 29.96 in1014.6 mb - 0.00 in0.0 mm 0.02 in0.5 mm
12:00 PM 66.9°F19.4°C 53.9°F12.2°C 63% 4.6 mph W7.4 kmh W 3.5 mph5.6 kmh 29.96 in1014.6 mb - 0.00 in0.0 mm 0.02 in0.5 mm
12:10 PM 66.9°F19.4°C 53.9°F12.2°C 63% 1.2 mph W1.9 kmh W 1.2 mph1.9 kmh 29.96 in1014.6 mb - 0.00 in0.0 mm 0.02 in0.5 mm
12:15 PM 67.0°F19.4°C 54.0°F12.2°C 63% 2.3 mph NW3.7 kmh NW 3.5 mph5.6 kmh 29.96 in1014.6 mb - 0.00 in0.0 mm 0.02 in0.5 mm
12:20 PM 67.5°F19.7°C 54.5°F12.5°C 63% 1.2 mph NW1.9 kmh NW 2.3 mph3.7 kmh 29.96 in1014.6 mb - 0.00 in0.0 mm 0.02 in0.5 mm
12:25 PM 68.0°F20.0°C 52.2°F11.2°C 57% 1.2 mph SW1.9 kmh SW 2.3 mph3.7 kmh 29.96 in1014.6 mb - 0.00 in0.0 mm 0.02 in0.5 mm
12:30 PM 68.5°F20.3°C 51.2°F10.7°C 54% 3.5 mph NW5.6 kmh NW 4.6 mph7.4 kmh 29.95 in1014.2 mb - 0.00 in0.0 mm 0.02 in0.5 mm
12:35 PM 68.9°F20.5°C 49.5°F9.7°C 50% 3.5 mph WSW5.6 kmh WSW 8.1 mph13.0 kmh 29.95 in1014.2 mb - 0.00 in0.0 mm 0.02 in0.5 mm
12:40 PM 69.3°F20.7°C 46.5°F8.1°C 44% 3.5 mph SW5.6 kmh SW 5.8 mph9.3 kmh 29.95 in1014.2 mb - 0.00 in0.0 mm 0.02 in0.5 mm
12:45 PM 70.0°F21.1°C 48.3°F9.1°C 46% 2.3 mph SW3.7 kmh SW 4.6 mph7.4 kmh 29.95 in1014.2 mb - 0.00 in0.0 mm 0.02 in0.5 mm
12:50 PM 70.7°F21.5°C 47.7°F8.7°C 44% 4.6 mph SW7.4 kmh SW 6.9 mph11.1 kmh 29.95 in1014.2 mb - 0.00 in0.0 mm 0.02 in0.5 mm
12:55 PM 70.5°F21.4°C 46.3°F7.9°C 42% 1.2 mph SE1.9 kmh SE 3.5 mph5.6 kmh 29.95 in1014.2 mb - 0.00 in0.0 mm 0.02 in0.5 mm
01:00 PM 70.5°F21.4°C 46.9°F8.3°C 43% 1.2 mph SSE1.9 kmh SSE 4.6 mph7.4 kmh 29.95 in1014.2 mb - 0.00 in0.0 mm 0.02 in0.5 mm
01:10 PM 70.2°F21.2°C 49.0°F9.4°C 47% 5.8 mph SW9.3 kmh SW 10.4 mph16.7 kmh 29.95 in1014.2 mb - 0.00 in0.0 mm 0.02 in0.5 mm
01:15 PM 69.7°F20.9°C 50.8°F10.4°C 51% 6.9 mph WSW11.1 kmh WSW 11.5 mph18.5 kmh 29.95 in1014.2 mb - 0.00 in0.0 mm 0.02 in0.5 mm
01:20 PM 69.3°F20.7°C 50.9°F10.5°C 52% 8.1 mph WSW13.0 kmh WSW 11.5 mph18.5 kmh 29.95 in1014.2 mb - 0.00 in0.0 mm 0.02 in0.5 mm
01:25 PM 68.9°F20.5°C 51.6°F10.9°C 54% 6.9 mph WSW11.1 kmh WSW 11.5 mph18.5 kmh 29.95 in1014.2 mb - 0.00 in0.0 mm 0.02 in0.5 mm
01:30 PM 68.8°F20.4°C 51.5°F10.8°C 54% 5.8 mph WSW9.3 kmh WSW 8.1 mph13.0 kmh 29.94 in1013.9 mb - 0.00 in0.0 mm 0.02 in0.5 mm
01:35 PM 69.5°F20.8°C 51.1°F10.6°C 52% 2.3 mph WSW3.7 kmh WSW 6.9 mph11.1 kmh 29.94 in1013.9 mb - 0.00 in0.0 mm 0.02 in0.5 mm
01:40 PM 70.1°F21.2°C 50.6°F10.3°C 50% 3.5 mph SSW5.6 kmh SSW 10.4 mph16.7 kmh 29.94 in1013.9 mb - 0.00 in0.0 mm 0.02 in0.5 mm
01:45 PM 70.2°F21.2°C 50.7°F10.4°C 50% 6.9 mph S11.1 kmh S 10.4 mph16.7 kmh 29.94 in1013.9 mb - 0.00 in0.0 mm 0.02 in0.5 mm
01:50 PM 69.9°F21.1°C 49.3°F9.6°C 48% 4.6 mph WSW7.4 kmh WSW 10.4 mph16.7 kmh 29.94 in1013.9 mb - 0.00 in0.0 mm 0.02 in0.5 mm
01:55 PM 69.5°F20.8°C 47.8°F8.8°C 46% 6.9 mph WSW11.1 kmh WSW 9.2 mph14.8 kmh 29.95 in1014.2 mb - 0.00 in0.0 mm 0.02 in0.5 mm
02:00 PM 69.2°F20.7°C 47.5°F8.6°C 46% 9.2 mph WSW14.8 kmh WSW 11.5 mph18.5 kmh 29.95 in1014.2 mb - 0.00 in0.0 mm 0.02 in0.5 mm
02:10 PM 68.5°F20.3°C 48.6°F9.2°C 49% 8.1 mph W13.0 kmh W 11.5 mph18.5 kmh 29.94 in1013.9 mb - 0.00 in0.0 mm 0.02 in0.5 mm
02:15 PM 68.6°F20.3°C 50.2°F10.1°C 52% 9.2 mph WSW14.8 kmh WSW 11.5 mph18.5 kmh 29.95 in1014.2 mb - 0.00 in0.0 mm 0.02 in0.5 mm
02:20 PM 67.9°F19.9°C 48.1°F8.9°C 49% 15.0 mph W24.1 kmh W 19.6 mph31.5 kmh 29.95 in1014.2 mb - 0.00 in0.0 mm 0.02 in0.5 mm
02:25 PM 67.4°F19.7°C 47.0°F8.3°C 48% 9.2 mph WNW14.8 kmh WNW 11.5 mph18.5 kmh 29.94 in1013.9 mb - 0.00 in0.0 mm 0.02 in0.5 mm
02:30 PM 68.0°F20.0°C 48.7°F9.3°C 50% 12.7 mph WNW20.4 kmh WNW 18.4 mph29.6 kmh 29.94 in1013.9 mb - 0.00 in0.0 mm 0.02 in0.5 mm
02:35 PM 67.9°F19.9°C 49.6°F9.8°C 52% 13.8 mph WNW22.2 kmh WNW 16.1 mph25.9 kmh 29.94 in1013.9 mb - 0.00 in0.0 mm 0.02 in0.5 mm
02:40 PM 67.3°F19.6°C 49.0°F9.4°C 52% 13.8 mph WNW22.2 kmh WNW 21.9 mph35.2 kmh 29.95 in1014.2 mb - 0.00 in0.0 mm 0.02 in0.5 mm
02:45 PM 66.7°F19.3°C 49.0°F9.4°C 53% 12.7 mph WNW20.4 kmh WNW 18.4 mph29.6 kmh 29.95 in1014.2 mb - 0.00 in0.0 mm 0.02 in0.5 mm
02:50 PM 66.2°F19.0°C 48.0°F8.9°C 52% 9.2 mph WNW14.8 kmh WNW 18.4 mph29.6 kmh 29.94 in1013.9 mb - 0.00 in0.0 mm 0.02 in0.5 mm
02:55 PM 66.0°F18.9°C 47.9°F8.8°C 52% 11.5 mph W18.5 kmh W 16.1 mph25.9 kmh 29.94 in1013.9 mb - 0.00 in0.0 mm 0.02 in0.5 mm
03:00 PM 65.9°F18.8°C 47.2°F8.4°C 51% 11.5 mph WNW18.5 kmh WNW 19.6 mph31.5 kmh 29.94 in1013.9 mb - 0.00 in0.0 mm 0.02 in0.5 mm
03:10 PM 66.6°F19.2°C 47.4°F8.6°C 50% 4.6 mph NW7.4 kmh NW 8.1 mph13.0 kmh 29.94 in1013.9 mb - 0.00 in0.0 mm 0.02 in0.5 mm
03:15 PM 67.4°F19.7°C 47.6°F8.7°C 49% 8.1 mph WNW13.0 kmh WNW 9.2 mph14.8 kmh 29.93 in1013.5 mb - 0.00 in0.0 mm 0.02 in0.5 mm
03:20 PM 67.9°F19.9°C 46.9°F8.3°C 47% 6.9 mph W11.1 kmh W 12.7 mph20.4 kmh 29.93 in1013.5 mb - 0.00 in0.0 mm 0.02 in0.5 mm
03:25 PM 68.2°F20.1°C 47.2°F8.4°C 47% 6.9 mph W11.1 kmh W 10.4 mph16.7 kmh 29.93 in1013.5 mb - 0.00 in0.0 mm 0.02 in0.5 mm
03:30 PM 67.9°F19.9°C 45.8°F7.7°C 45% 8.1 mph W13.0 kmh W 10.4 mph16.7 kmh 29.93 in1013.5 mb - 0.00 in0.0 mm 0.02 in0.5 mm
03:35 PM 67.8°F19.9°C 46.2°F7.9°C 46% 3.5 mph W5.6 kmh W 9.2 mph14.8 kmh 29.93 in1013.5 mb - 0.00 in0.0 mm 0.02 in0.5 mm
03:40 PM 67.8°F19.9°C 45.1°F7.3°C 44% 5.8 mph W9.3 kmh W 9.2 mph14.8 kmh 29.93 in1013.5 mb - 0.00 in0.0 mm 0.02 in0.5 mm
03:45 PM 67.8°F19.9°C 44.5°F6.9°C 43% 4.6 mph WSW7.4 kmh WSW 6.9 mph11.1 kmh 29.93 in1013.5 mb - 0.00 in0.0 mm 0.02 in0.5 mm
03:50 PM 67.9°F19.9°C 43.9°F6.6°C 42% 5.8 mph WNW9.3 kmh WNW 9.2 mph14.8 kmh 29.92 in1013.2 mb - 0.00 in0.0 mm 0.02 in0.5 mm
03:55 PM 67.9°F19.9°C 43.3°F6.3°C 41% 4.6 mph SW7.4 kmh SW 10.4 mph16.7 kmh 29.93 in1013.5 mb - 0.00 in0.0 mm 0.02 in0.5 mm
04:00 PM 68.0°F20.0°C 44.0°F6.7°C 42% 9.2 mph W14.8 kmh W 12.7 mph20.4 kmh 29.93 in1013.5 mb - 0.00 in0.0 mm 0.02 in0.5 mm
04:10 PM 68.7°F20.4°C 44.7°F7.1°C 42% 10.4 mph W16.7 kmh W 17.3 mph27.8 kmh 29.93 in1013.5 mb - 0.00 in0.0 mm 0.02 in0.5 mm
04:15 PM 68.8°F20.4°C 44.8°F7.1°C 42% 5.8 mph WSW9.3 kmh WSW 6.9 mph11.1 kmh 29.93 in1013.5 mb - 0.00 in0.0 mm 0.02 in0.5 mm
04:20 PM 69.1°F20.6°C 45.0°F7.2°C 42% 5.8 mph WSW9.3 kmh WSW 9.2 mph14.8 kmh 29.93 in1013.5 mb - 0.00 in0.0 mm 0.02 in0.5 mm
04:25 PM 69.0°F20.6°C 44.3°F6.8°C 41% 8.1 mph WSW13.0 kmh WSW 11.5 mph18.5 kmh 29.93 in1013.5 mb - 0.00 in0.0 mm 0.02 in0.5 mm
04:30 PM 68.6°F20.3°C 42.7°F5.9°C 39% 6.9 mph WSW11.1 kmh WSW 10.4 mph16.7 kmh 29.93 in1013.5 mb - 0.00 in0.0 mm 0.02 in0.5 mm
04:35 PM 68.5°F20.3°C 43.2°F6.2°C 40% 8.1 mph WSW13.0 kmh WSW 11.5 mph18.5 kmh 29.93 in1013.5 mb - 0.00 in0.0 mm 0.02 in0.5 mm
04:40 PM 68.5°F20.3°C 42.6°F5.9°C 39% 8.1 mph WSW13.0 kmh WSW 11.5 mph18.5 kmh 29.93 in1013.5 mb - 0.00 in0.0 mm 0.02 in0.5 mm
04:45 PM 68.6°F20.3°C 42.6°F5.9°C 39% 6.9 mph SW11.1 kmh SW 10.4 mph16.7 kmh 29.93 in1013.5 mb - 0.00 in0.0 mm 0.02 in0.5 mm
04:50 PM 68.6°F20.3°C 42.6°F5.9°C 39% 9.2 mph SW14.8 kmh SW 11.5 mph18.5 kmh 29.93 in1013.5 mb - 0.00 in0.0 mm 0.02 in0.5 mm
04:55 PM 68.2°F20.1°C 42.3°F5.7°C 39% 8.1 mph SSW13.0 kmh SSW 12.7 mph20.4 kmh 29.93 in1013.5 mb - 0.00 in0.0 mm 0.02 in0.5 mm
05:00 PM 68.0°F20.0°C 43.4°F6.3°C 41% 10.4 mph SW16.7 kmh SW 12.7 mph20.4 kmh 29.93 in1013.5 mb - 0.00 in0.0 mm 0.02 in0.5 mm
05:10 PM 68.0°F20.0°C 43.4°F6.3°C 41% 8.1 mph SW13.0 kmh SW 11.5 mph18.5 kmh 29.93 in1013.5 mb - 0.00 in0.0 mm 0.02 in0.5 mm
05:15 PM 68.1°F20.1°C 42.9°F6.1°C 40% 10.4 mph SW16.7 kmh SW 16.1 mph25.9 kmh 29.93 in1013.5 mb - 0.00 in0.0 mm 0.02 in0.5 mm
05:20 PM 68.1°F20.1°C 42.9°F6.1°C 40% 8.1 mph SW13.0 kmh SW 11.5 mph18.5 kmh 29.93 in1013.5 mb - 0.00 in0.0 mm 0.02 in0.5 mm
05:25 PM 68.1°F20.1°C 42.2°F5.7°C 39% 12.7 mph SW20.4 kmh SW 18.4 mph29.6 kmh 29.93 in1013.5 mb - 0.00 in0.0 mm 0.02 in0.5 mm
05:30 PM 68.1°F20.1°C 42.8°F6.0°C 40% 12.7 mph SW20.4 kmh SW 16.1 mph25.9 kmh 29.93 in1013.5 mb - 0.00 in0.0 mm 0.02 in0.5 mm
05:35 PM 68.0°F20.0°C 43.4°F6.3°C 41% 8.1 mph SSW13.0 kmh SSW 8.1 mph13.0 kmh 29.93 in1013.5 mb - 0.00 in0.0 mm 0.02 in0.5 mm
05:40 PM 68.1°F20.1°C 43.5°F6.4°C 41% 5.8 mph SW9.3 kmh SW 13.8 mph22.2 kmh 29.93 in1013.5 mb - 0.00 in0.0 mm 0.02 in0.5 mm
05:45 PM 68.2°F20.1°C 44.8°F7.1°C 43% 3.5 mph SSW5.6 kmh SSW 5.8 mph9.3 kmh 29.93 in1013.5 mb - 0.00 in0.0 mm 0.02 in0.5 mm
05:50 PM 68.3°F20.2°C 44.9°F7.2°C 43% 4.6 mph SW7.4 kmh SW 8.1 mph13.0 kmh 29.93 in1013.5 mb - 0.00 in0.0 mm 0.02 in0.5 mm
05:55 PM 68.4°F20.2°C 45.0°F7.2°C 43% 9.2 mph S14.8 kmh S 12.7 mph20.4 kmh 29.93 in1013.5 mb - 0.00 in0.0 mm 0.02 in0.5 mm
06:00 PM 68.3°F20.2°C 45.5°F7.5°C 44% 4.6 mph S7.4 kmh S 9.2 mph14.8 kmh 29.93 in1013.5 mb - 0.00 in0.0 mm 0.02 in0.5 mm
06:10 PM 68.0°F20.0°C 45.3°F7.4°C 44% 8.1 mph S13.0 kmh S 12.7 mph20.4 kmh 29.93 in1013.5 mb - 0.00 in0.0 mm 0.02 in0.5 mm
06:15 PM 67.8°F19.9°C 45.7°F7.6°C 45% 3.5 mph S5.6 kmh S 5.8 mph9.3 kmh 29.94 in1013.9 mb - 0.00 in0.0 mm 0.02 in0.5 mm
06:20 PM 67.6°F19.8°C 45.5°F7.5°C 45% 4.6 mph S7.4 kmh S 4.6 mph7.4 kmh 29.94 in1013.9 mb - 0.00 in0.0 mm 0.02 in0.5 mm
06:25 PM 67.4°F19.7°C 45.9°F7.7°C 46% 2.3 mph SE3.7 kmh SE 4.6 mph7.4 kmh 29.94 in1013.9 mb - 0.00 in0.0 mm 0.02 in0.5 mm
06:30 PM 67.1°F19.5°C 46.2°F7.9°C 47% 1.2 mph S1.9 kmh S 2.3 mph3.7 kmh 29.94 in1013.9 mb - 0.00 in0.0 mm 0.02 in0.5 mm
06:35 PM 66.8°F19.3°C 46.5°F8.1°C 48% 2.3 mph SE3.7 kmh SE 4.6 mph7.4 kmh 29.94 in1013.9 mb - 0.00 in0.0 mm 0.02 in0.5 mm
06:40 PM 66.5°F19.2°C 46.7°F8.2°C 49% 1.2 mph S1.9 kmh S 3.5 mph5.6 kmh 29.94 in1013.9 mb - 0.00 in0.0 mm 0.02 in0.5 mm
06:45 PM 66.2°F19.0°C 46.5°F8.1°C 49% 1.2 mph S1.9 kmh S 2.3 mph3.7 kmh 29.94 in1013.9 mb - 0.00 in0.0 mm 0.02 in0.5 mm
06:50 PM 65.7°F18.7°C 46.0°F7.8°C 49% 2.3 mph ESE3.7 kmh ESE 5.8 mph9.3 kmh 29.94 in1013.9 mb - 0.00 in0.0 mm 0.02 in0.5 mm
06:55 PM 65.5°F18.6°C 46.4°F8.0°C 50% Calm Calm 2.3 mph3.7 kmh 29.94 in1013.9 mb - 0.00 in0.0 mm 0.02 in0.5 mm
07:00 PM 65.1°F18.4°C 46.5°F8.1°C 51% 1.2 mph ESE1.9 kmh ESE 3.5 mph5.6 kmh 29.94 in1013.9 mb - 0.00 in0.0 mm 0.02 in0.5 mm
07:10 PM 64.5°F18.1°C 46.0°F7.8°C 51% Calm Calm -- 29.94 in1013.9 mb - 0.00 in0.0 mm 0.02 in0.5 mm
07:15 PM 64.0°F17.8°C 45.5°F7.5°C 51% 1.2 mph SE1.9 kmh SE 2.3 mph3.7 kmh 29.94 in1013.9 mb - 0.00 in0.0 mm 0.02 in0.5 mm
07:20 PM 63.5°F17.5°C 45.5°F7.5°C 52% 2.3 mph SE3.7 kmh SE 3.5 mph5.6 kmh 29.94 in1013.9 mb - 0.00 in0.0 mm 0.02 in0.5 mm
07:25 PM 62.7°F17.1°C 45.4°F7.4°C 53% 1.2 mph SE1.9 kmh SE 2.3 mph3.7 kmh 29.94 in1013.9 mb - 0.00 in0.0 mm 0.02 in0.5 mm
07:30 PM 62.3°F16.8°C 45.4°F7.4°C 54% 2.3 mph SE3.7 kmh SE 3.5 mph5.6 kmh 29.95 in1014.2 mb - 0.00 in0.0 mm 0.02 in0.5 mm
07:35 PM 62.0°F16.7°C 44.7°F7.1°C 53% 1.2 mph SE1.9 kmh SE 3.5 mph5.6 kmh 29.95 in1014.2 mb - 0.00 in0.0 mm 0.02 in0.5 mm
07:40 PM 61.7°F16.5°C 44.8°F7.1°C 54% 1.2 mph ESE1.9 kmh ESE 3.5 mph5.6 kmh 29.95 in1014.2 mb - 0.00 in0.0 mm 0.02 in0.5 mm
07:45 PM 61.4°F16.3°C 45.1°F7.3°C 55% 1.2 mph ESE1.9 kmh ESE 3.5 mph5.6 kmh 29.95 in1014.2 mb - 0.00 in0.0 mm 0.02 in0.5 mm
07:50 PM 61.3°F16.3°C 45.5°F7.5°C 56% 2.3 mph ESE3.7 kmh ESE 3.5 mph5.6 kmh 29.95 in1014.2 mb - 0.00 in0.0 mm 0.02 in0.5 mm
07:55 PM 61.3°F16.3°C 45.5°F7.5°C 56% 1.2 mph ESE1.9 kmh ESE 2.3 mph3.7 kmh 29.95 in1014.2 mb - 0.00 in0.0 mm 0.02 in0.5 mm
08:00 PM 61.0°F16.1°C 45.6°F7.6°C 57% 2.3 mph NE3.7 kmh NE 3.5 mph5.6 kmh 29.95 in1014.2 mb - 0.00 in0.0 mm 0.02 in0.5 mm
08:10 PM 60.5°F15.8°C 46.1°F7.8°C 59% Calm Calm -- 29.96 in1014.6 mb - 0.00 in0.0 mm 0.02 in0.5 mm
08:15 PM 60.2°F15.7°C 45.4°F7.4°C 58% 1.2 mph NE1.9 kmh NE 1.2 mph1.9 kmh 29.96 in1014.6 mb - 0.00 in0.0 mm 0.02 in0.5 mm
08:20 PM 60.0°F15.6°C 44.3°F6.8°C 56% 2.3 mph NW3.7 kmh NW 3.5 mph5.6 kmh 29.96 in1014.6 mb - 0.00 in0.0 mm 0.02 in0.5 mm
08:25 PM 60.1°F15.6°C 44.8°F7.1°C 57% Calm Calm -- 29.96 in1014.6 mb - 0.00 in0.0 mm 0.02 in0.5 mm
08:30 PM 59.9°F15.5°C 45.5°F7.5°C 59% 3.5 mph ESE5.6 kmh ESE 3.5 mph5.6 kmh 29.97 in1014.9 mb - 0.00 in0.0 mm 0.02 in0.5 mm
08:35 PM 59.7°F15.4°C 45.3°F7.4°C 59% Calm Calm 1.2 mph1.9 kmh 29.96 in1014.6 mb - 0.00 in0.0 mm 0.02 in0.5 mm
08:40 PM 59.5°F15.3°C 44.7°F7.1°C 58% 1.2 mph ESE1.9 kmh ESE 2.3 mph3.7 kmh 29.97 in1014.9 mb - 0.00 in0.0 mm 0.02 in0.5 mm
08:45 PM 59.5°F15.3°C 45.1°F7.3°C 59% 2.3 mph ESE3.7 kmh ESE 3.5 mph5.6 kmh 29.97 in1014.9 mb - 0.00 in0.0 mm 0.02 in0.5 mm
08:50 PM 59.3°F15.2°C 45.4°F7.4°C 60% 2.3 mph S3.7 kmh S 3.5 mph5.6 kmh 29.97 in1014.9 mb - 0.00 in0.0 mm 0.02 in0.5 mm
08:55 PM 59.0°F15.0°C 45.6°F7.6°C 61% 1.2 mph S1.9 kmh S 2.3 mph3.7 kmh 29.98 in1015.2 mb - 0.00 in0.0 mm 0.02 in0.5 mm
09:00 PM 58.5°F14.7°C 45.9°F7.7°C 63% 1.2 mph S1.9 kmh S 2.3 mph3.7 kmh 29.98 in1015.2 mb - 0.00 in0.0 mm 0.02 in0.5 mm
09:10 PM 57.8°F14.3°C 45.7°F7.6°C 64% Calm Calm 3.5 mph5.6 kmh 29.98 in1015.2 mb - 0.00 in0.0 mm 0.02 in0.5 mm
09:15 PM 57.6°F14.2°C 45.9°F7.7°C 65% Calm Calm 2.3 mph3.7 kmh 29.98 in1015.2 mb - 0.00 in0.0 mm 0.02 in0.5 mm
09:20 PM 57.3°F14.1°C 45.6°F7.6°C 65% 1.2 mph ESE1.9 kmh ESE 1.2 mph1.9 kmh 29.98 in1015.2 mb - 0.00 in0.0 mm 0.02 in0.5 mm
09:25 PM 57.1°F13.9°C 45.8°F7.7°C 66% 1.2 mph ESE1.9 kmh ESE 2.3 mph3.7 kmh 29.98 in1015.2 mb - 0.00 in0.0 mm 0.02 in0.5 mm
09:30 PM 56.8°F13.8°C 45.6°F7.6°C 66% 1.2 mph ESE1.9 kmh ESE 2.3 mph3.7 kmh 29.98 in1015.2 mb - 0.00 in0.0 mm 0.02 in0.5 mm
09:35 PM 56.7°F13.7°C 45.9°F7.7°C 67% Calm Calm -- 29.99 in1015.6 mb - 0.00 in0.0 mm 0.02 in0.5 mm
09:40 PM 56.5°F13.6°C 45.7°F7.6°C 67% Calm Calm 1.2 mph1.9 kmh 29.99 in1015.6 mb - 0.00 in0.0 mm 0.02 in0.5 mm
09:45 PM 56.2°F13.4°C 45.8°F7.7°C 68% Calm Calm 2.3 mph3.7 kmh 29.99 in1015.6 mb - 0.00 in0.0 mm 0.02 in0.5 mm
09:50 PM 55.7°F13.2°C 45.7°F7.6°C 69% Calm Calm -- 29.99 in1015.6 mb - 0.00 in0.0 mm 0.02 in0.5 mm
09:55 PM 55.5°F13.1°C 45.9°F7.7°C 70% Calm Calm -- 29.99 in1015.6 mb - 0.00 in0.0 mm 0.02 in0.5 mm
10:00 PM 55.3°F12.9°C 45.7°F7.6°C 70% 1.2 mph ESE1.9 kmh ESE 2.3 mph3.7 kmh 29.99 in1015.6 mb - 0.00 in0.0 mm 0.02 in0.5 mm
10:10 PM 54.7°F12.6°C 45.4°F7.4°C 71% Calm Calm 1.2 mph1.9 kmh 29.98 in1015.2 mb - 0.00 in0.0 mm 0.02 in0.5 mm
10:15 PM 54.3°F12.4°C 45.1°F7.3°C 71% Calm Calm 1.2 mph1.9 kmh 29.99 in1015.6 mb - 0.00 in0.0 mm 0.02 in0.5 mm
10:20 PM 53.9°F12.2°C 45.1°F7.3°C 72% 1.2 mph ESE1.9 kmh ESE 2.3 mph3.7 kmh 29.99 in1015.6 mb - 0.00 in0.0 mm 0.02 in0.5 mm
10:25 PM 53.6°F12.0°C 45.2°F7.3°C 73% Calm Calm -- 29.99 in1015.6 mb - 0.00 in0.0 mm 0.02 in0.5 mm
10:30 PM 53.3°F11.8°C 44.8°F7.1°C 73% 1.2 mph ESE1.9 kmh ESE 1.2 mph1.9 kmh 29.99 in1015.6 mb - 0.00 in0.0 mm 0.02 in0.5 mm
10:35 PM 53.0°F11.7°C 45.0°F7.2°C 74% 1.2 mph ESE1.9 kmh ESE 2.3 mph3.7 kmh 29.99 in1015.6 mb - 0.00 in0.0 mm 0.02 in0.5 mm
10:40 PM 52.8°F11.6°C 45.1°F7.3°C 75% 1.2 mph ESE1.9 kmh ESE 2.3 mph3.7 kmh 29.99 in1015.6 mb - 0.00 in0.0 mm 0.02 in0.5 mm
10:45 PM 52.5°F11.4°C 44.8°F7.1°C 75% 2.3 mph SE3.7 kmh SE 3.5 mph5.6 kmh 29.99 in1015.6 mb - 0.00 in0.0 mm 0.02 in0.5 mm
10:50 PM 52.3°F11.3°C 45.0°F7.2°C 76% Calm Calm 1.2 mph1.9 kmh 29.99 in1015.6 mb - 0.00 in0.0 mm 0.02 in0.5 mm
10:55 PM 52.1°F11.2°C 45.1°F7.3°C 77% Calm Calm -- 29.99 in1015.6 mb - 0.00 in0.0 mm 0.02 in0.5 mm
11:00 PM 51.9°F11.1°C 44.9°F7.2°C 77% Calm Calm -- 29.99 in1015.6 mb - 0.00 in0.0 mm 0.22 in5.6 mm
11:10 PM 51.5°F10.8°C 45.2°F7.3°C 79% 2.3 mph SE3.7 kmh SE 2.3 mph3.7 kmh 29.99 in1015.6 mb - 0.00 in0.0 mm 0.22 in5.6 mm
11:15 PM 51.3°F10.7°C 45.0°F7.2°C 79% 1.2 mph SE1.9 kmh SE 2.3 mph3.7 kmh 29.99 in1015.6 mb - 0.00 in0.0 mm 0.22 in5.6 mm
11:20 PM 51.1°F10.6°C 44.8°F7.1°C 79% Calm Calm 1.2 mph1.9 kmh 29.99 in1015.6 mb - 0.00 in0.0 mm 0.22 in5.6 mm
11:25 PM 51.0°F10.6°C 44.7°F7.1°C 79% 1.2 mph SE1.9 kmh SE 2.3 mph3.7 kmh 29.99 in1015.6 mb - 0.00 in0.0 mm 0.22 in5.6 mm
11:30 PM 50.8°F10.4°C 44.9°F7.2°C 80% 1.2 mph SE1.9 kmh SE 1.2 mph1.9 kmh 29.99 in1015.6 mb - 0.00 in0.0 mm 0.22 in5.6 mm
11:35 PM 50.6°F10.3°C 44.7°F7.1°C 80% 1.2 mph SE1.9 kmh SE 2.3 mph3.7 kmh 29.99 in1015.6 mb - 0.00 in0.0 mm 0.22 in5.6 mm
11:40 PM 50.4°F10.2°C 44.8°F7.1°C 81% Calm Calm -- 29.99 in1015.6 mb - 0.00 in0.0 mm 0.22 in5.6 mm
11:45 PM 50.3°F10.2°C 44.7°F7.1°C 81% Calm Calm -- 29.99 in1015.6 mb - 0.00 in0.0 mm 0.22 in5.6 mm
11:50 PM 50.1°F10.1°C 44.5°F6.9°C 81% 1.2 mph SE1.9 kmh SE 3.5 mph5.6 kmh 29.99 in1015.6 mb - 0.00 in0.0 mm 0.22 in5.6 mm
11:55 PM 49.9°F9.9°C 44.6°F7.0°C 82% Calm Calm -- 29.99 in1015.6 mb - 0.00 in0.0 mm 0.22 in5.6 mm